createdAt,value
2019-06-26T00:00:24.037Z,18.43
2019-06-26T00:05:28.982Z,15.30
2019-06-26T00:10:33.875Z,14.90
2019-06-26T00:15:41.741Z,12.93
2019-06-26T00:20:46.554Z,14.43
2019-06-26T00:25:51.390Z,15.30
2019-06-26T00:30:56.337Z,15.32
2019-06-26T00:36:01.705Z,14.98
2019-06-26T00:41:06.716Z,16.10
2019-06-26T00:46:11.552Z,14.23
2019-06-26T00:51:16.629Z,13.50
2019-06-26T00:56:21.667Z,14.38
2019-06-26T01:01:28.570Z,14.38
2019-06-26T01:06:45.357Z,13.30
2019-06-26T01:11:51.213Z,13.35
2019-06-26T01:16:56.120Z,11.63
2019-06-26T01:22:00.947Z,12.68
2019-06-26T01:27:08.639Z,13.60
2019-06-26T01:32:13.601Z,12.85
2019-06-26T01:37:18.858Z,12.50
2019-06-26T01:42:23.715Z,14.75
2019-06-26T01:47:28.587Z,14.85
2019-06-26T01:52:34.497Z,13.13
2019-06-26T01:57:39.406Z,12.40
2019-06-26T02:02:44.562Z,12.20
2019-06-26T02:07:49.374Z,15.15
2019-06-26T02:12:54.375Z,14.50
2019-06-26T02:17:59.333Z,15.68
2019-06-26T02:23:04.826Z,15.05
2019-06-26T02:28:09.681Z,14.90
2019-06-26T02:33:14.721Z,15.25
2019-06-26T02:38:22.219Z,15.65
2019-06-26T02:43:30.533Z,13.45
2019-06-26T02:48:36.720Z,18.35
2019-06-26T02:53:42.731Z,18.05
2019-06-26T02:58:47.656Z,14.23
2019-06-26T03:03:52.685Z,18.67
2019-06-26T03:08:57.561Z,21.97
2019-06-26T03:14:02.615Z,20.27
2019-06-26T03:19:10.248Z,21.00
2019-06-26T03:24:15.607Z,22.93
2019-06-26T03:29:20.359Z,22.98
2019-06-26T03:34:25.245Z,22.87
2019-06-26T03:39:30.146Z,20.12
2019-06-26T03:44:35.050Z,24.95
2019-06-26T03:49:39.835Z,24.37
2019-06-26T03:54:44.678Z,23.35
2019-06-26T03:59:49.609Z,24.57
2019-06-26T04:04:54.458Z,22.52
2019-06-26T04:09:59.292Z,19.55
2019-06-26T04:15:04.997Z,18.07
2019-06-26T04:20:12.161Z,20.23
2019-06-26T04:25:17.195Z,17.50
2019-06-26T04:30:23.959Z,23.30
2019-06-26T04:35:28.889Z,20.70
2019-06-26T04:40:33.893Z,27.27
2019-06-26T04:45:54.126Z,28.27
2019-06-26T04:50:48.521Z,23.60
2019-06-26T04:55:53.471Z,26.25
2019-06-26T05:00:58.241Z,25.95
2019-06-26T05:06:03.017Z,23.67
2019-06-26T05:11:07.773Z,33.10
2019-06-26T05:16:15.702Z,24.10
2019-06-26T05:21:19.163Z,27.90
2019-06-26T05:26:24.008Z,30.17
2019-06-26T05:31:28.833Z,30.08
2019-06-26T05:36:33.745Z,25.97
2019-06-26T05:41:38.544Z,30.25
2019-06-26T05:46:43.317Z,26.30
2019-06-26T05:51:48.057Z,29.80
2019-06-26T05:56:59.179Z,27.50
2019-06-26T06:02:04.835Z,26.02
2019-06-26T06:07:09.689Z,26.70
2019-06-26T06:12:14.403Z,24.55
2019-06-26T06:17:19.291Z,32.83
2019-06-26T06:22:27.335Z,26.62
2019-06-26T06:27:30.782Z,29.00
2019-06-26T06:32:35.778Z,24.45
2019-06-26T06:37:40.756Z,23.77
2019-06-26T06:43:02.114Z,26.05
2019-06-26T06:48:07.278Z,16.07
2019-06-26T06:53:12.113Z,27.37
2019-06-26T06:58:17.149Z,23.47
2019-06-26T07:03:21.966Z,24.23
2019-06-26T07:08:26.920Z,20.90
2019-06-26T07:13:37.721Z,24.10
2019-06-26T07:18:43.859Z,25.97
2019-06-26T07:23:49.862Z,14.83
2019-06-26T07:28:54.717Z,21.85
2019-06-26T07:34:00.877Z,22.55
2019-06-26T07:39:06.678Z,13.88
2019-06-26T07:44:11.955Z,13.80
2019-06-26T07:49:17.323Z,14.78
2019-06-26T07:54:22.117Z,17.95
2019-06-26T07:59:27.041Z,15.75
2019-06-26T08:04:31.880Z,12.90
2019-06-26T08:09:37.424Z,20.52
2019-06-26T08:14:42.953Z,12.28
2019-06-26T08:19:48.245Z,11.80
2019-06-26T08:25:03.159Z,15.93
2019-06-26T08:30:10.001Z,9.98
2019-06-26T08:35:15.480Z,9.47
2019-06-26T08:40:22.090Z,12.20
2019-06-26T08:45:27.211Z,9.68
2019-06-26T08:50:31.994Z,9.50
2019-06-26T08:55:36.806Z,10.93
2019-06-26T09:00:41.634Z,10.18
2019-06-26T09:05:48.663Z,11.40
2019-06-26T09:10:53.390Z,12.23
2019-06-26T09:16:00.917Z,13.15
2019-06-26T09:21:05.907Z,9.38
2019-06-26T09:26:10.757Z,10.27
2019-06-26T09:31:15.553Z,12.98
2019-06-26T09:36:20.433Z,11.10
2019-06-26T09:41:25.155Z,12.93
2019-06-26T09:46:30.938Z,9.05
2019-06-26T09:51:35.768Z,10.50
2019-06-26T09:56:40.767Z,9.75
2019-06-26T10:01:45.663Z,10.30
2019-06-26T10:06:50.477Z,14.05
2019-06-26T10:11:55.224Z,13.50
2019-06-26T10:16:59.966Z,13.08
2019-06-26T10:22:06.692Z,14.35
2019-06-26T10:27:11.518Z,10.75
2019-06-26T10:32:16.402Z,11.73
2019-06-26T10:37:22.134Z,10.23
2019-06-26T10:42:29.126Z,9.53
2019-06-26T10:47:33.925Z,11.50
2019-06-26T10:52:46.890Z,14.28
2019-06-26T10:57:51.624Z,14.68
2019-06-26T11:02:56.942Z,12.65
2019-06-26T11:08:01.785Z,7.90
2019-06-26T11:13:06.978Z,12.10
2019-06-26T11:18:11.748Z,9.25
2019-06-26T11:23:16.567Z,7.78
2019-06-26T11:28:21.373Z,17.30
2019-06-26T11:33:27.127Z,13.72
2019-06-26T11:38:31.990Z,13.65
2019-06-26T11:43:38.539Z,10.68
2019-06-26T11:48:43.286Z,13.20
2019-06-26T11:53:49.899Z,9.33
2019-06-26T11:58:54.721Z,12.95
2019-06-26T12:04:05.603Z,11.73
2019-06-26T12:09:10.722Z,14.35
2019-06-26T12:14:15.642Z,7.55
2019-06-26T12:19:23.444Z,11.35
2019-06-26T12:24:28.122Z,10.35
2019-06-26T12:29:33.135Z,15.50
2019-06-26T12:34:39.450Z,11.80
2019-06-26T12:39:45.317Z,11.40
2019-06-26T12:44:51.731Z,10.25
2019-06-26T12:49:56.709Z,12.47
2019-06-26T12:55:01.488Z,10.70
2019-06-26T13:00:07.384Z,11.75
2019-06-26T13:05:14.162Z,9.03
2019-06-26T13:10:20.956Z,12.98
2019-06-26T13:15:28.986Z,17.62
2019-06-26T13:20:48.234Z,11.22
2019-06-26T13:25:40.547Z,14.05
2019-06-26T13:30:45.732Z,10.25
2019-06-26T13:35:52.183Z,10.25
2019-06-26T13:40:57.102Z,13.20
2019-06-26T13:46:03.385Z,12.63
2019-06-26T13:51:10.105Z,11.40
2019-06-26T13:56:20.824Z,13.80
2019-06-26T14:01:26.048Z,12.00
2019-06-26T14:06:30.883Z,14.87
2019-06-26T14:11:35.997Z,11.40
2019-06-26T14:16:41.057Z,12.18
2019-06-26T14:21:45.891Z,16.95
2019-06-26T14:26:51.126Z,20.20
2019-06-26T14:31:56.199Z,17.85
2019-06-26T14:37:01.610Z,12.43
2019-06-26T14:42:12.152Z,15.98
2019-06-26T14:47:17.979Z,15.38
2019-06-26T14:52:23.837Z,14.45
2019-06-26T14:57:34.740Z,14.65
2019-06-26T15:02:39.835Z,11.18
2019-06-26T15:07:44.838Z,10.88
2019-06-26T15:12:49.657Z,16.45
2019-06-26T15:17:54.443Z,11.40
2019-06-26T15:22:59.487Z,18.82
2019-06-26T15:28:04.730Z,13.78
2019-06-26T15:33:10.054Z,12.60
2019-06-26T15:38:15.336Z,15.05
2019-06-26T15:43:21.281Z,15.60
2019-06-26T15:48:26.291Z,11.68
2019-06-26T15:53:31.435Z,16.57
2019-06-26T15:58:36.405Z,14.63
2019-06-26T16:03:51.058Z,12.40
2019-06-26T16:08:56.537Z,18.37
2019-06-26T16:14:07.112Z,15.20
2019-06-26T16:19:15.373Z,12.60
2019-06-26T16:24:20.508Z,13.37
2019-06-26T16:29:25.426Z,12.68
2019-06-26T16:34:30.502Z,16.05
2019-06-26T16:39:35.300Z,10.98
2019-06-26T16:44:40.187Z,14.28
2019-06-26T16:49:45.013Z,15.63
2019-06-26T16:54:49.951Z,11.15
2019-06-26T17:00:08.472Z,9.53
2019-06-26T17:05:01.368Z,12.33
2019-06-26T17:10:13.161Z,11.08
2019-06-26T17:15:18.395Z,16.13
2019-06-26T17:20:23.462Z,13.25
2019-06-26T17:25:28.456Z,10.10
2019-06-26T17:30:33.317Z,14.40
2019-06-26T17:35:38.398Z,8.53
2019-06-26T17:40:50.246Z,9.65
2019-06-26T17:45:58.149Z,11.30
2019-06-26T17:51:03.029Z,11.43
2019-06-26T17:56:07.968Z,7.70
2019-06-26T18:01:12.994Z,8.70
2019-06-26T18:06:17.986Z,6.87
2019-06-26T18:11:22.900Z,6.77
2019-06-26T18:16:27.837Z,8.55
2019-06-26T18:21:32.732Z,7.12
2019-06-26T18:26:37.740Z,9.00
2019-06-26T18:31:42.784Z,6.20
2019-06-26T18:36:47.770Z,8.90
2019-06-26T18:41:52.727Z,8.18
2019-06-26T18:46:57.772Z,9.17
2019-06-26T18:52:03.102Z,8.30
2019-06-26T18:57:08.095Z,9.40
2019-06-26T19:02:13.224Z,10.28
2019-06-26T19:07:18.110Z,9.70
2019-06-26T19:12:25.568Z,9.23
2019-06-26T19:17:42.776Z,7.50
2019-06-26T19:22:47.909Z,8.28
2019-06-26T19:27:53.174Z,8.17
2019-06-26T19:32:58.977Z,8.03
2019-06-26T19:38:04.908Z,11.10
2019-06-26T19:43:11.176Z,9.00
2019-06-26T19:48:16.572Z,9.25
2019-06-26T19:53:24.329Z,8.28
2019-06-26T19:58:29.099Z,12.50
2019-06-26T20:03:33.926Z,10.38
2019-06-26T20:08:53.036Z,8.63
2019-06-26T20:13:46.400Z,7.50
2019-06-26T20:18:51.342Z,11.97
2019-06-26T20:24:01.874Z,7.65
2019-06-26T20:29:06.684Z,13.30
2019-06-26T20:34:12.006Z,11.57
2019-06-26T20:39:21.101Z,7.03
2019-06-26T20:44:29.020Z,9.25
2019-06-26T20:49:33.940Z,8.53
2019-06-26T20:54:41.963Z,8.05
2019-06-26T20:59:46.903Z,8.80
2019-06-26T21:04:51.641Z,9.05
2019-06-26T21:09:56.599Z,10.20
2019-06-26T21:15:01.671Z,7.28
2019-06-26T21:20:07.188Z,9.50
2019-06-26T21:25:19.585Z,9.05
2019-06-26T21:30:31.677Z,7.92
2019-06-26T21:35:36.683Z,10.05
2019-06-26T21:40:41.645Z,8.70
2019-06-26T21:45:46.914Z,6.72
2019-06-26T21:50:51.907Z,8.45
2019-06-26T21:55:56.856Z,10.00
2019-06-26T22:01:26.831Z,6.37
2019-06-26T22:06:50.134Z,9.70
2019-06-26T22:12:12.497Z,9.48
2019-06-26T22:17:20.872Z,6.83
2019-06-26T22:22:25.831Z,8.40
2019-06-26T22:27:33.586Z,8.53
2019-06-26T22:32:38.718Z,8.30
2019-06-26T22:37:43.594Z,8.95
2019-06-26T22:42:48.445Z,7.97
2019-06-26T22:48:05.557Z,9.10
2019-06-26T22:53:10.857Z,7.42
2019-06-26T22:58:15.757Z,9.88
2019-06-26T23:03:20.701Z,11.30
2019-06-26T23:08:25.856Z,6.22
2019-06-26T23:13:31.461Z,6.62
2019-06-26T23:18:40.635Z,10.82
2019-06-26T23:23:45.489Z,9.10
2019-06-26T23:28:50.234Z,8.28
2019-06-26T23:33:55.585Z,9.75
2019-06-26T23:39:00.535Z,8.43
2019-06-26T23:44:07.272Z,15.08
2019-06-26T23:49:12.032Z,11.75
2019-06-26T23:54:16.857Z,11.35
2019-06-26T23:59:21.838Z,10.63
